Time,TemperatureF,DewpointF,PressureIn,WindDirection,WindDirectionDegrees,WindSpeedMPH,WindSpeedGustMPH,Humidity,HourlyPrecipIn,Conditions,Clouds,dailyrainin,SoftwareType,DateUTC
2013-06-04 00:05:00,55.1,41.0,29.90,WSW,247,4.0,-999.0,59,-99.99,,,0.00,weatherlink.com 1.10,2013-06-04 04:05:00,
2013-06-04 00:20:00,54.4,41.0,29.91,SW,224,3.0,-999.0,61,-99.99,,,0.00,weatherlink.com 1.10,2013-06-04 04:20:00,
2013-06-04 00:35:00,53.9,41.0,29.90,SW,225,7.0,-999.0,62,-99.99,,,0.00,weatherlink.com 1.10,2013-06-04 04:35:00,
2013-06-04 00:50:00,54.4,41.0,29.90,SW,233,0.0,-999.0,61,-99.99,,,0.00,weatherlink.com 1.10,2013-06-04 04:50:00,
2013-06-04 01:05:00,54.1,41.0,29.90,WSW,248,3.0,-999.0,62,-99.99,,,0.00,weatherlink.com 1.10,2013-06-04 05:05:00,
2013-06-04 01:20:00,53.9,41.0,29.90,SW,231,4.0,-999.0,63,-99.99,,,0.00,weatherlink.com 1.10,2013-06-04 05:20:00,
2013-06-04 01:35:00,52.3,42.0,29.90,SW,236,5.0,-999.0,67,-99.99,,,0.00,weatherlink.com 1.10,2013-06-04 05:35:00,
2013-06-04 01:50:00,50.8,42.0,29.91,SW,233,5.0,-999.0,72,-99.99,,,0.00,weatherlink.com 1.10,2013-06-04 05:50:00,
2013-06-04 02:06:00,51.1,42.0,29.90,WSW,237,3.0,-999.0,70,-99.99,,,0.00,weatherlink.com 1.10,2013-06-04 06:06:00,
2013-06-04 02:21:00,51.1,42.0,29.91,SW,229,3.0,-999.0,71,-99.99,,,0.00,weatherlink.com 1.10,2013-06-04 06:21:00,
2013-06-04 02:36:00,51.6,42.0,29.90,SW,214,6.0,-999.0,70,-99.99,,,0.00,weatherlink.com 1.10,2013-06-04 06:36:00,
2013-06-04 02:51:00,51.7,42.0,29.90,WSW,241,4.0,-999.0,70,-99.99,,,0.00,weatherlink.com 1.10,2013-06-04 06:51:00,
2013-06-04 03:06:00,51.8,42.0,29.90,West,259,6.0,-999.0,69,-99.99,,,0.00,weatherlink.com 1.10,2013-06-04 07:06:00,
2013-06-04 03:21:00,51.7,42.0,29.90,WSW,248,4.0,-999.0,70,-99.99,,,0.00,weatherlink.com 1.10,2013-06-04 07:21:00,
2013-06-04 03:36:00,51.3,42.0,29.90,SW,219,5.0,-999.0,71,-99.99,,,0.00,weatherlink.com 1.10,2013-06-04 07:36:00,
2013-06-04 03:51:00,50.7,42.0,29.91,WSW,240,0.0,-999.0,73,-99.99,,,0.00,weatherlink.com 1.10,2013-06-04 07:51:00,
2013-06-04 04:06:00,50.3,43.0,29.91,SW,218,0.0,-999.0,75,-99.99,,,0.00,weatherlink.com 1.10,2013-06-04 08:06:00,
2013-06-04 04:21:00,49.8,42.0,29.92,WSW,246,1.0,-999.0,75,-99.99,,,0.00,weatherlink.com 1.10,2013-06-04 08:21:00,
2013-06-04 04:36:00,49.0,42.0,29.92,WSW,246,0.0,-999.0,78,-99.99,,,0.00,weatherlink.com 1.10,2013-06-04 08:36:00,
2013-06-04 05:06:00,46.6,42.0,29.93,WSW,246,0.0,-999.0,85,-99.99,,,0.00,weatherlink.com 1.10,2013-06-04 09:06:00,
2013-06-04 05:21:00,46.1,42.0,29.94,WSW,246,0.0,-999.0,86,-99.99,,,0.00,weatherlink.com 1.10,2013-06-04 09:21:00,
2013-06-04 05:36:00,45.6,42.0,29.94,WSW,246,0.0,-999.0,88,-99.99,,,0.00,weatherlink.com 1.10,2013-06-04 09:36:00,
2013-06-04 06:06:00,45.6,43.0,29.95,WSW,246,0.0,-999.0,91,-99.99,,,0.00,weatherlink.com 1.10,2013-06-04 10:06:00,
2013-06-04 06:21:00,46.6,44.0,29.95,WSW,246,0.0,-999.0,92,-99.99,,,0.00,weatherlink.com 1.10,2013-06-04 10:21:00,
2013-06-04 06:36:00,48.6,46.0,29.95,WSW,246,0.0,-999.0,90,-99.99,,,0.00,weatherlink.com 1.10,2013-06-04 10:36:00,
2013-06-04 06:51:00,50.3,47.0,29.95,WSW,246,0.0,-999.0,87,-99.99,,,0.00,weatherlink.com 1.10,2013-06-04 10:51:00,
2013-06-04 07:06:00,52.3,45.0,29.95,SW,230,3.0,-999.0,77,-99.99,,,0.00,weatherlink.com 1.10,2013-06-04 11:06:00,
2013-06-04 07:21:00,53.4,45.0,29.94,SW,214,4.0,-999.0,74,-99.99,,,0.00,weatherlink.com 1.10,2013-06-04 11:21:00,
2013-06-04 07:36:00,54.3,46.0,29.95,SW,222,0.0,-999.0,73,-99.99,,,0.00,weatherlink.com 1.10,2013-06-04 11:36:00,
2013-06-04 07:51:00,55.2,47.0,29.96,SW,222,0.0,-999.0,73,-99.99,,,0.00,weatherlink.com 1.10,2013-06-04 11:51:00,
2013-06-04 08:06:00,56.7,46.0,29.95,SW,224,1.0,-999.0,68,-99.99,,,0.00,weatherlink.com 1.10,2013-06-04 12:06:00,
2013-06-04 08:21:00,57.1,46.0,29.95,NW,316,3.0,-999.0,66,-99.99,,,0.00,weatherlink.com 1.10,2013-06-04 12:21:00,
2013-06-04 08:36:00,-999.0,-99.9,29.95,North,-999,-999.0,-999.0,-999,-99.99,,,0.00,weatherlink.com 1.10,2013-06-04 12:36:00,
2013-06-04 08:51:00,-999.0,-99.9,29.95,North,-999,-999.0,-999.0,-999,-99.99,,,0.00,weatherlink.com 1.10,2013-06-04 12:51:00,
2013-06-04 09:06:00,-999.0,-99.9,29.96,North,-999,-999.0,-999.0,-999,-99.99,,,0.00,weatherlink.com 1.10,2013-06-04 13:06:00,
2013-06-04 09:21:00,-999.0,-99.9,29.96,North,-999,-999.0,-999.0,-999,-99.99,,,0.00,weatherlink.com 1.10,2013-06-04 13:21:00,
2013-06-04 09:37:00,-999.0,-99.9,29.96,North,-999,-999.0,-999.0,-999,-99.99,,,0.00,weatherlink.com 1.10,2013-06-04 13:37:00,
2013-06-04 09:52:00,-999.0,-99.9,29.96,North,-999,-999.0,-999.0,-999,-99.99,,,0.00,weatherlink.com 1.10,2013-06-04 13:52:00,
2013-06-04 10:07:00,-999.0,-99.9,29.96,North,-999,-999.0,-999.0,-999,-99.99,,,0.00,weatherlink.com 1.10,2013-06-04 14:07:00,
2013-06-04 10:22:00,-999.0,-99.9,29.96,North,-999,-999.0,-999.0,-999,-99.99,,,0.00,weatherlink.com 1.10,2013-06-04 14:22:00,
2013-06-04 10:37:00,59.4,44.0,29.97,NW,321,4.0,-999.0,58,-99.99,,,0.00,weatherlink.com 1.10,2013-06-04 14:37:00,
2013-06-04 10:52:00,62.3,48.0,29.97,NNW,342,12.0,-999.0,61,-99.99,,,0.00,weatherlink.com 1.10,2013-06-04 14:52:00,
2013-06-04 11:07:00,60.6,45.0,29.97,NW,326,11.0,-999.0,56,-99.99,,,0.00,weatherlink.com 1.10,2013-06-04 15:07:00,
2013-06-04 11:22:00,59.9,44.0,29.98,North,1,6.0,-999.0,56,-99.99,,,0.00,weatherlink.com 1.10,2013-06-04 15:22:00,
2013-06-04 11:37:00,59.6,45.0,29.98,NNE,23,6.0,-999.0,58,-99.99,,,0.00,weatherlink.com 1.10,2013-06-04 15:37:00,
2013-06-04 11:52:00,60.5,46.0,29.99,North,8,3.0,-999.0,59,-99.99,,,0.00,weatherlink.com 1.10,2013-06-04 15:52:00,
2013-06-04 12:07:00,62.1,46.0,29.99,NNW,342,8.0,-999.0,56,-99.99,,,0.00,weatherlink.com 1.10,2013-06-04 16:07:00,
2013-06-04 12:22:00,62.0,45.0,29.99,NE,55,4.0,-999.0,55,-99.99,,,0.00,weatherlink.com 1.10,2013-06-04 16:22:00,
2013-06-04 12:37:00,61.9,45.0,29.99,NW,306,9.0,-999.0,55,-99.99,,,0.00,weatherlink.com 1.10,2013-06-04 16:37:00,
2013-06-04 12:52:00,62.1,47.0,29.99,North,356,5.0,-999.0,58,-99.99,,,0.00,weatherlink.com 1.10,2013-06-04 16:52:00,
2013-06-04 13:07:00,62.1,46.0,30.00,North,359,5.0,-999.0,57,-99.99,,,0.00,weatherlink.com 1.10,2013-06-04 17:07:00,
2013-06-04 13:22:00,62.8,50.0,30.00,NNW,334,4.0,-999.0,64,-99.99,,,0.00,weatherlink.com 1.10,2013-06-04 17:22:00,
2013-06-04 13:37:00,63.5,50.0,30.00,NNE,25,11.0,-999.0,62,-99.99,,,0.00,weatherlink.com 1.10,2013-06-04 17:37:00,
2013-06-04 13:52:00,63.6,49.0,30.00,NNE,18,16.0,-999.0,60,-99.99,,,0.00,weatherlink.com 1.10,2013-06-04 17:52:00,
2013-06-04 14:08:00,63.5,49.0,30.00,NNE,33,12.0,-999.0,60,-99.99,,,0.00,weatherlink.com 1.10,2013-06-04 18:08:00,
2013-06-04 14:23:00,63.7,48.0,30.00,NNE,15,5.0,-999.0,58,-99.99,,,0.00,weatherlink.com 1.10,2013-06-04 18:23:00,
2013-06-04 14:38:00,64.2,49.0,30.00,North,1,5.0,-999.0,59,-99.99,,,0.00,weatherlink.com 1.10,2013-06-04 18:38:00,
2013-06-04 14:53:00,64.3,50.0,29.99,North,7,9.0,-999.0,60,-99.99,,,0.00,weatherlink.com 1.10,2013-06-04 18:53:00,
2013-06-04 15:08:00,64.6,49.0,29.99,North,352,6.0,-999.0,57,-99.99,,,0.00,weatherlink.com 1.10,2013-06-04 19:08:00,
2013-06-04 15:23:00,65.4,49.0,30.00,NE,39,7.0,-999.0,56,-99.99,,,0.00,weatherlink.com 1.10,2013-06-04 19:23:00,
2013-06-04 15:38:00,65.4,50.0,30.00,NE,35,0.0,-999.0,57,-99.99,,,0.00,weatherlink.com 1.10,2013-06-04 19:38:00,
2013-06-04 15:53:00,66.3,48.0,30.00,North,0,3.0,-999.0,53,-99.99,,,0.00,weatherlink.com 1.10,2013-06-04 19:53:00,
2013-06-04 16:08:00,66.6,50.0,30.00,NE,51,4.0,-999.0,55,-99.99,,,0.00,weatherlink.com 1.10,2013-06-04 20:08:00,
2013-06-04 16:23:00,66.6,50.0,30.00,North,10,4.0,-999.0,55,-99.99,,,0.00,weatherlink.com 1.10,2013-06-04 20:23:00,
2013-06-04 16:38:00,67.0,50.0,30.00,NNE,20,13.0,-999.0,54,-99.99,,,0.00,weatherlink.com 1.10,2013-06-04 20:38:00,
2013-06-04 16:53:00,66.7,48.0,30.00,North,352,6.0,-999.0,52,-99.99,,,0.00,weatherlink.com 1.10,2013-06-04 20:53:00,
2013-06-04 17:08:00,66.9,50.0,30.00,NE,34,6.0,-999.0,55,-99.99,,,0.00,weatherlink.com 1.10,2013-06-04 21:08:00,
2013-06-04 17:23:00,66.6,48.0,30.00,ENE,62,7.0,-999.0,52,-99.99,,,0.00,weatherlink.com 1.10,2013-06-04 21:23:00,
2013-06-04 17:38:00,67.0,49.0,30.00,North,2,7.0,-999.0,52,-99.99,,,0.00,weatherlink.com 1.10,2013-06-04 21:38:00,
2013-06-04 17:53:00,66.7,49.0,30.01,NE,41,10.0,-999.0,53,-99.99,,,0.00,weatherlink.com 1.10,2013-06-04 21:53:00,
2013-06-04 18:08:00,67.1,49.0,30.02,NE,37,1.0,-999.0,52,-99.99,,,0.00,weatherlink.com 1.10,2013-06-04 22:08:00,
2013-06-04 18:23:00,66.3,48.0,30.02,NE,36,7.0,-999.0,53,-99.99,,,0.00,weatherlink.com 1.10,2013-06-04 22:23:00,
2013-06-04 18:38:00,65.9,49.0,30.03,NNE,27,3.0,-999.0,54,-99.99,,,0.00,weatherlink.com 1.10,2013-06-04 22:38:00,
2013-06-04 18:54:00,65.8,49.0,30.02,NNE,14,6.0,-999.0,54,-99.99,,,0.00,weatherlink.com 1.10,2013-06-04 22:54:00,
2013-06-04 19:09:00,65.1,47.0,30.03,NNE,13,6.0,-999.0,53,-99.99,,,0.00,weatherlink.com 1.10,2013-06-04 23:09:00,
2013-06-04 19:24:00,64.5,48.0,30.04,NNE,18,6.0,-999.0,56,-99.99,,,0.00,weatherlink.com 1.10,2013-06-04 23:24:00,
2013-06-04 19:39:00,64.1,49.0,30.05,NNE,29,2.0,-999.0,58,-99.99,,,0.00,weatherlink.com 1.10,2013-06-04 23:39:00,
2013-06-04 19:54:00,62.8,49.0,30.05,NNE,12,1.0,-999.0,60,-99.99,,,0.00,weatherlink.com 1.10,2013-06-04 23:54:00,
2013-06-04 20:09:00,60.9,49.0,30.06,NNE,12,0.0,-999.0,65,-99.99,,,0.00,weatherlink.com 1.10,2013-06-05 00:09:00,
2013-06-04 20:24:00,58.7,49.0,30.06,NNE,12,0.0,-999.0,69,-99.99,,,0.00,weatherlink.com 1.10,2013-06-05 00:24:00,
2013-06-04 20:39:00,57.4,50.0,30.07,NNE,12,0.0,-999.0,75,-99.99,,,0.00,weatherlink.com 1.10,2013-06-05 00:39:00,
2013-06-04 20:54:00,56.1,50.0,30.07,NNE,12,0.0,-999.0,79,-99.99,,,0.00,weatherlink.com 1.10,2013-06-05 00:54:00,
2013-06-04 21:09:00,55.1,48.0,30.07,NNE,12,0.0,-999.0,78,-99.99,,,0.00,weatherlink.com 1.10,2013-06-05 01:09:00,
2013-06-04 21:24:00,55.7,48.0,30.09,North,1,1.0,-999.0,76,-99.99,,,0.00,weatherlink.com 1.10,2013-06-05 01:24:00,
2013-06-04 21:39:00,55.5,48.0,30.09,North,1,0.0,-999.0,77,-99.99,,,0.00,weatherlink.com 1.10,2013-06-05 01:39:00,
2013-06-04 21:54:00,55.8,48.0,30.09,North,0,0.0,-999.0,75,-99.99,,,0.00,weatherlink.com 1.10,2013-06-05 01:54:00,
2013-06-04 22:09:00,55.2,48.0,30.10,North,0,0.0,-999.0,76,-99.99,,,0.00,weatherlink.com 1.10,2013-06-05 02:09:00,
2013-06-04 22:24:00,54.8,47.0,30.11,North,0,0.0,-999.0,76,-99.99,,,0.00,weatherlink.com 1.10,2013-06-05 02:24:00,
2013-06-04 22:39:00,53.3,47.0,30.12,North,0,0.0,-999.0,80,-99.99,,,0.00,weatherlink.com 1.10,2013-06-05 02:39:00,
2013-06-04 22:54:00,52.0,47.0,30.12,SW,225,0.0,-999.0,83,-99.99,,,0.00,weatherlink.com 1.10,2013-06-05 02:54:00,
2013-06-04 23:09:00,50.7,46.0,30.12,SW,225,2.0,-999.0,85,-99.99,,,0.00,weatherlink.com 1.10,2013-06-05 03:09:00,
2013-06-04 23:24:00,50.8,47.0,30.12,SW,225,0.0,-999.0,86,-99.99,,,0.00,weatherlink.com 1.10,2013-06-05 03:24:00,
2013-06-04 23:39:00,50.6,47.0,30.12,SW,228,0.0,-999.0,86,-99.99,,,0.00,weatherlink.com 1.10,2013-06-05 03:39:00,
2013-06-04 23:54:00,49.3,46.0,30.12,SW,228,2.0,-999.0,88,-99.99,,,0.00,weatherlink.com 1.10,2013-06-05 03:54:00,